Time;durP1;ratioP1;P1;durP2;ratioP2;P2;SDS_P1;SDS_P2;PMS_P1;PMS_P2;Temp;Humidity;BMP_temperature;BMP_pressure;BME280_temperature;BME280_humidity;BME280_pressure;Samples;Min_cycle;Max_cycle;Signal;HPM_P1;HPM_P2
2023/06/21 00:01:31;;;;;;;;;5.60;5.40;;;;;24.42;54.42;100697.63;5050351;28;29493;-58
2023/06/21 00:03:59;;;;;;;;;8.00;6.00;;;;;24.39;54.43;100695.44;5048323;28;30195;-56
2023/06/21 00:06:24;;;;;;;;;6.00;6.00;;;;;24.42;54.40;100699.56;5050463;28;29989;-59
2023/06/21 00:08:50;;;;;;;;;5.00;5.00;;;;;24.36;54.76;100685.66;5008902;28;29834;-59
2023/06/21 00:11:17;;;;;;;;;7.50;7.50;;;;;24.45;54.45;100698.97;5064925;28;29584;-58
2023/06/21 00:13:42;;;;;;;;;4.80;4.80;;;;;24.34;54.74;100679.50;5050422;28;29213;-58
2023/06/21 00:16:08;;;;;;;;;6.50;6.50;;;;;24.35;54.91;100697.19;5050365;28;29912;-57
2023/06/21 00:18:33;;;;;;;;;4.50;4.00;;;;;24.33;54.81;100699.47;5049886;28;29581;-60
2023/06/21 00:20:59;;;;;;;;;9.50;6.50;;;;;24.34;54.73;100701.13;5050156;28;29342;-54
2023/06/21 00:23:25;;;;;;;;;6.00;5.40;;;;;24.32;54.74;100697.78;5048857;28;29285;-56
2023/06/21 00:25:50;;;;;;;;;6.50;4.50;;;;;24.31;54.75;100699.75;5050068;28;29691;-57
2023/06/21 00:28:16;;;;;;;;;5.50;5.00;;;;;24.14;55.13;100672.28;5048229;28;30932;-60
2023/06/21 00:30:42;;;;;;;;;6.25;6.25;;;;;24.23;55.32;100686.44;5050129;28;29411;-58
2023/06/21 00:33:07;;;;;;;;;7.50;5.50;;;;;24.22;55.10;100693.19;5049974;28;29605;-52
2023/06/21 00:35:32;;;;;;;;;6.00;6.00;;;;;24.08;55.42;100699.56;5050404;28;29649;-58
2023/06/21 00:37:58;;;;;;;;;4.50;4.25;;;;;24.03;55.56;100707.19;5050217;28;29587;-59
2023/06/21 00:40:25;;;;;;;;;5.00;4.75;;;;;23.99;55.87;100703.31;5065340;28;29755;-58
2023/06/21 00:42:52;;;;;;;;;4.20;3.80;;;;;24.04;55.74;100703.25;5048145;28;29477;-55
2023/06/21 00:45:18;;;;;;;;;5.40;4.00;;;;;24.02;55.68;100695.13;5049666;28;29543;-61
2023/06/21 00:47:45;;;;;;;;;5.00;4.25;;;;;23.91;56.09;100708.50;5049973;28;29090;-60
2023/06/21 00:50:12;;;;;;;;;5.60;3.80;;;;;23.83;56.35;100686.75;5048189;28;29851;-54
2023/06/21 00:52:38;;;;;;;;;5.00;4.20;;;;;23.83;56.47;100698.81;5049695;28;29790;-59
2023/06/21 00:55:05;;;;;;;;;3.00;3.00;;;;;23.81;56.48;100706.66;5049932;28;30145;-60
2023/06/21 00:57:30;;;;;;;;;7.60;6.60;;;;;23.85;56.57;100711.69;5049516;28;30912;-57
2023/06/21 00:59:56;;;;;;;;;5.00;4.25;;;;;23.88;56.51;100713.88;5049482;28;29299;-55
2023/06/21 01:02:21;;;;;;;;;5.00;5.00;;;;;23.89;56.20;100712.72;5049608;28;29544;-61
2023/06/21 01:04:49;;;;;;;;;6.00;6.00;;;;;23.90;56.16;100712.44;5047795;28;29823;-58
2023/06/21 01:07:36;;;;;;;;;5.80;5.00;;;;;23.79;56.68;100725.75;5047713;28;30037;-52
2023/06/21 01:10:26;;;;;;;;;5.60;5.60;;;;;23.71;56.68;100723.66;5049265;28;29713;-58
2023/06/21 01:13:13;;;;;;;;;4.80;3.80;;;;;23.69;56.73;100737.09;5049422;28;28696;-54
2023/06/21 01:15:42;;;;;;;;;4.40;4.40;;;;;23.58;57.14;100730.81;5048772;28;38893;-57
2023/06/21 01:18:08;;;;;;;;;5.00;3.60;;;;;23.63;57.04;100738.34;5031476;28;29221;-52
2023/06/21 01:20:34;;;;;;;;;5.00;5.00;;;;;23.44;57.67;100747.53;5048648;28;29787;-58
2023/06/21 01:23:09;;;;;;;;;5.75;5.00;;;;;23.42;57.76;100753.41;5030206;28;29270;-57
2023/06/21 01:25:53;;;;;;;;;5.80;5.00;;;;;23.37;57.60;100752.66;5047583;28;29466;-58
2023/06/21 01:28:31;;;;;;;;;5.00;5.00;;;;;23.41;57.75;100760.16;5048840;28;29680;-58
2023/06/21 01:30:57;;;;;;;;;3.00;3.00;;;;;23.34;57.78;100754.09;5048955;28;29080;-56
2023/06/21 01:33:23;;;;;;;;;5.00;5.00;;;;;23.42;57.61;100750.63;5048088;28;29252;-60
2023/06/21 01:35:49;;;;;;;;;4.00;4.00;;;;;23.16;58.51;100752.88;5037187;28;28990;-60
2023/06/21 01:38:15;;;;;;;;;4.60;4.60;;;;;23.10;58.28;100743.69;5007648;28;29423;-57
2023/06/21 01:40:40;;;;;;;;;4.25;4.00;;;;;23.28;58.35;100769.25;5026533;28;29939;-57
2023/06/21 01:43:06;;;;;;;;;5.00;5.00;;;;;23.37;58.00;100770.28;5027416;28;29381;-59
2023/06/21 01:45:31;;;;;;;;;4.50;4.50;;;;;23.44;57.86;100769.09;5026577;28;29890;-59
2023/06/21 01:47:57;;;;;;;;;6.00;4.50;;;;;23.41;57.54;100760.16;5035494;28;29376;-58
2023/06/21 01:50:22;;;;;;;;;4.00;3.00;;;;;23.51;57.33;100776.00;5046839;28;29539;-58
2023/06/21 01:52:48;;;;;;;;;4.25;4.25;;;;;23.56;57.32;100775.09;5046548;28;29363;-58
2023/06/21 01:55:14;;;;;;;;;4.25;4.25;;;;;23.61;57.22;100774.19;5044668;28;29636;-60
2023/06/21 01:57:39;;;;;;;;;7.00;5.50;;;;;23.58;57.19;100774.81;5045649;28;29583;-60
2023/06/21 02:00:18;;;;;;;;;5.50;4.00;;;;;23.51;57.69;100786.34;5046686;28;29126;-57
2023/06/21 02:02:55;;;;;;;;;4.60;4.60;;;;;23.53;57.68;100790.53;5047842;28;29589;-60
2023/06/21 02:05:20;;;;;;;;;6.00;6.00;;;;;23.54;57.35;100788.56;5048837;28;29375;-57
2023/06/21 02:07:46;;;;;;;;;5.00;3.75;;;;;23.59;57.17;100799.72;5048083;28;29424;-54
2023/06/21 02:10:15;;;;;;;;;4.00;4.00;;;;;23.49;57.60;100799.84;5046856;28;29520;-56
2023/06/21 02:12:41;;;;;;;;;5.20;5.20;;;;;23.38;57.88;100799.13;5049031;28;29435;-57
2023/06/21 02:15:08;;;;;;;;;4.00;4.00;;;;;23.42;58.17;100795.44;5048656;28;29290;-57
2023/06/21 02:17:34;;;;;;;;;6.80;6.00;;;;;23.40;57.76;100785.66;5048757;28;29457;-57
2023/06/21 02:19:59;;;;;;;;;4.50;4.50;;;;;23.48;57.66;100792.56;5047236;28;29800;-59
2023/06/21 02:22:25;;;;;;;;;2.75;2.50;;;;;23.48;57.76;100789.78;5048414;28;29338;-58
2023/06/21 02:24:50;;;;;;;;;5.00;5.00;;;;;23.44;57.84;100785.88;5048481;28;29502;-59
2023/06/21 02:27:16;;;;;;;;;5.75;5.75;;;;;23.37;58.15;100791.88;5048348;28;29048;-57
2023/06/21 02:29:42;;;;;;;;;3.75;3.50;;;;;23.28;57.95;100774.84;5048677;28;29809;-59
2023/06/21 02:32:07;;;;;;;;;4.50;4.00;;;;;23.27;58.07;100770.38;5048481;28;29559;-59
2023/06/21 02:34:32;;;;;;;;;5.25;4.25;;;;;23.36;58.14;100781.78;5051388;28;29424;-54
2023/06/21 02:36:58;;;;;;;;;3.50;3.50;;;;;23.38;58.32;100783.13;5052061;28;29823;-57
2023/06/21 02:39:24;;;;;;;;;5.50;4.25;;;;;23.40;57.71;100780.91;5028234;28;29604;-57
2023/06/21 02:41:51;;;;;;;;;4.00;4.00;;;;;23.41;57.69;100779.75;5051932;28;29331;-58
2023/06/21 02:44:17;;;;;;;;;6.80;4.00;;;;;23.41;57.90;100784.50;5051576;28;29919;-55
2023/06/21 02:46:42;;;;;;;;;4.20;4.20;;;;;23.38;57.57;100783.13;5052087;28;29498;-58
2023/06/21 02:49:08;;;;;;;;;4.00;2.75;;;;;23.36;57.87;100778.97;5049914;28;30292;-58
2023/06/21 02:51:33;;;;;;;;;5.25;4.00;;;;;23.27;57.97;100775.97;5051682;28;29708;-59
2023/06/21 02:53:59;;;;;;;;;3.00;3.00;;;;;23.33;58.15;100790.78;5051916;28;29590;-54
2023/06/21 02:56:24;;;;;;;;;3.25;3.25;;;;;23.31;58.45;100793.88;5050869;28;30117;-57
2023/06/21 02:58:50;;;;;;;;;3.75;3.25;;;;;23.33;58.43;100788.81;5051378;28;29174;-58
2023/06/21 03:01:16;;;;;;;;;6.00;5.00;;;;;23.29;58.19;100791.34;5051392;28;29588;-58
2023/06/21 03:03:43;;;;;;;;;6.25;5.00;;;;;23.26;58.35;100788.31;5051449;28;30206;-53
2023/06/21 03:06:08;;;;;;;;;3.80;3.80;;;;;23.25;58.62;100789.41;5051025;28;29932;-56
2023/06/21 03:08:36;;;;;;;;;5.25;4.25;;;;;23.23;58.19;100803.75;5051102;28;29784;-57
2023/06/21 03:11:02;;;;;;;;;4.20;4.20;;;;;23.22;58.37;100795.63;5049934;28;29924;-53
2023/06/21 03:13:27;;;;;;;;;5.25;5.00;;;;;23.11;58.69;100800.50;5051158;28;29027;-55
2023/06/21 03:15:53;;;;;;;;;3.00;3.00;;;;;23.08;58.74;100798.28;5050988;28;30141;-57
2023/06/21 03:18:18;;;;;;;;;3.75;3.50;;;;;23.07;59.05;100791.88;5050925;28;29919;-58
2023/06/21 03:20:46;;;;;;;;;7.00;5.50;;;;;23.12;58.53;100794.59;5050936;28;30014;-55
2023/06/21 03:23:12;;;;;;;;;4.00;3.00;;;;;23.11;58.75;100806.09;5051164;28;29768;-57
2023/06/21 03:25:37;;;;;;;;;5.00;5.00;;;;;23.02;59.39;100795.53;5049231;28;30239;-58
2023/06/21 03:28:03;;;;;;;;;4.50;4.50;;;;;23.09;58.84;100805.53;5050832;28;29634;-59
2023/06/21 03:30:28;;;;;;;;;4.50;4.50;;;;;23.12;58.79;100805.78;5050378;28;28990;-54
2023/06/21 03:32:54;;;;;;;;;5.00;5.00;;;;;23.12;58.77;100803.00;5050726;28;29453;-56
2023/06/21 03:35:19;;;;;;;;;5.00;4.00;;;;;23.06;58.60;100789.34;5050856;28;30126;-58
2023/06/21 03:37:46;;;;;;;;;6.50;5.50;;;;;23.13;58.59;100799.09;5049158;28;29391;-58
2023/06/21 03:40:13;;;;;;;;;3.60;3.60;;;;;23.09;58.92;100806.41;5043684;28;30098;-55
2023/06/21 03:42:39;;;;;;;;;3.20;3.20;;;;;22.97;59.13;100804.00;5048494;28;29583;-57
2023/06/21 03:45:07;;;;;;;;;4.40;4.40;;;;;23.01;59.24;100823.84;5048151;28;29766;-58
2023/06/21 03:47:34;;;;;;;;;4.00;4.00;;;;;22.97;59.38;100823.59;5048771;28;30800;-55
2023/06/21 03:50:00;;;;;;;;;5.00;3.80;;;;;22.99;59.46;100832.50;5050626;28;29438;-56
2023/06/21 03:52:25;;;;;;;;;6.00;5.00;;;;;22.98;59.33;100838.41;5050578;28;29409;-57
2023/06/21 03:54:52;;;;;;;;;6.25;5.75;;;;;22.98;59.44;100852.38;5049906;28;30226;-56
2023/06/21 03:57:17;;;;;;;;;5.00;5.00;;;;;22.98;59.55;100850.44;5050309;28;29989;-55
2023/06/21 03:59:43;;;;;;;;;3.50;3.50;;;;;22.92;59.70;100854.41;5050194;28;29596;-59
2023/06/21 04:02:08;;;;;;;;;3.00;3.00;;;;;23.01;59.71;100860.22;5049268;28;29415;-60
2023/06/21 04:04:34;;;;;;;;;5.00;4.50;;;;;23.05;59.56;100857.66;5048444;28;31517;-56
2023/06/21 04:06:59;;;;;;;;;4.50;3.50;;;;;23.07;59.39;100861.84;5065371;28;29850;-54
2023/06/21 04:09:25;;;;;;;;;7.25;4.75;;;;;23.02;59.28;100851.50;5048886;28;29648;-59
2023/06/21 04:11:50;;;;;;;;;7.00;6.00;;;;;23.05;59.15;100869.69;5048811;28;29009;-57
2023/06/21 04:14:16;;;;;;;;;7.00;7.00;;;;;22.90;59.60;100851.09;5050028;28;30089;-57
2023/06/21 04:16:42;;;;;;;;;5.75;5.75;;;;;23.00;59.40;100876.16;5049979;28;30161;-55
2023/06/21 04:19:08;;;;;;;;;5.00;5.00;;;;;22.93;59.51;100856.06;5050019;28;29997;-55
2023/06/21 04:21:33;;;;;;;;;6.50;5.25;;;;;23.05;59.46;100883.66;5050078;28;29287;-59
2023/06/21 04:23:59;;;;;;;;;5.75;5.75;;;;;23.05;59.55;100892.06;5049971;28;29773;-60
2023/06/21 04:26:24;;;;;;;;;5.25;5.25;;;;;23.00;59.33;100873.34;5048699;28;29124;-57
2023/06/21 04:28:50;;;;;;;;;4.75;4.00;;;;;22.96;59.68;100882.63;5048401;28;29055;-56
2023/06/21 04:31:15;;;;;;;;;6.25;5.00;;;;;23.01;59.40;100896.59;5050213;28;29261;-58
2023/06/21 04:33:41;;;;;;;;;5.50;4.00;;;;;23.00;59.47;100898.53;5050065;28;29722;-59
2023/06/21 04:36:06;;;;;;;;;5.50;5.50;;;;;22.99;59.82;100907.22;5065028;28;30608;-59
2023/06/21 04:38:33;;;;;;;;;6.50;5.00;;;;;22.92;59.57;100899.19;5031763;28;29145;-57
2023/06/21 04:40:58;;;;;;;;;6.40;6.40;;;;;22.96;60.07;100919.88;5049882;28;28997;-58
2023/06/21 04:43:24;;;;;;;;;5.25;5.25;;;;;22.89;59.84;100913.75;5048277;28;30031;-60
2023/06/21 04:45:51;;;;;;;;;3.80;3.80;;;;;22.96;59.83;100935.81;5049721;28;29735;-58
2023/06/21 04:48:16;;;;;;;;;7.20;5.20;;;;;22.97;59.90;100938.31;5049718;28;29399;-56
2023/06/21 04:50:46;;;;;;;;;5.25;5.25;;;;;23.00;59.84;100943.31;5049640;28;29415;-58
2023/06/21 04:53:12;;;;;;;;;7.40;7.40;;;;;23.05;60.11;100942.44;5049388;28;29633;-52
2023/06/21 04:55:42;;;;;;;;;5.40;5.40;;;;;23.05;59.77;100942.44;5049591;28;29501;-53
2023/06/21 04:58:09;;;;;;;;;7.00;7.00;;;;;23.05;60.00;100941.63;5049614;28;28732;-56
2023/06/21 05:00:35;;;;;;;;;8.00;7.00;;;;;23.00;59.83;100946.13;5019065;28;29800;-55
2023/06/21 05:03:00;;;;;;;;;6.40;6.40;;;;;23.02;59.71;100949.47;5048029;28;29634;-59
2023/06/21 05:05:26;;;;;;;;;6.25;4.75;;;;;22.99;60.23;100944.47;5064964;28;28839;-59
2023/06/21 05:07:51;;;;;;;;;5.00;5.00;;;;;23.06;59.80;100955.34;5049701;28;29884;-55
2023/06/21 05:10:17;;;;;;;;;6.75;6.75;;;;;23.05;60.14;100953.63;5049508;28;29638;-56
2023/06/21 05:12:42;;;;;;;;;7.00;6.50;;;;;23.07;60.23;100958.94;5049748;28;29553;-58
2023/06/21 05:15:08;;;;;;;;;3.75;3.75;;;;;23.10;60.44;100963.97;5047785;28;29208;-60
2023/06/21 05:17:34;;;;;;;;;5.75;5.75;;;;;23.09;60.26;100965.09;5049880;28;29187;-59
2023/06/21 05:20:00;;;;;;;;;6.50;6.50;;;;;22.95;60.56;100954.56;5049630;28;29838;-54
2023/06/21 05:22:25;;;;;;;;;4.50;4.50;;;;;23.03;60.29;100972.69;5048853;28;29652;-52
2023/06/21 05:24:50;;;;;;;;;7.25;7.25;;;;;23.00;60.63;100967.69;5049286;28;29998;-59
2023/06/21 05:27:16;;;;;;;;;9.00;8.75;;;;;23.02;60.82;100977.44;5048887;28;29763;-58
2023/06/21 05:29:41;;;;;;;;;7.25;7.25;;;;;23.04;60.58;100962.34;5049224;28;29343;-56
2023/06/21 05:32:07;;;;;;;;;8.75;6.75;;;;;23.15;60.82;100977.91;5049157;28;30370;-54
2023/06/21 05:34:32;;;;;;;;;12.50;10.00;;;;;23.21;60.59;100978.72;5048865;28;30137;-52
2023/06/21 05:36:58;;;;;;;;;6.50;6.50;;;;;23.03;60.90;100955.91;5049146;28;29960;-57
2023/06/21 05:39:23;;;;;;;;;7.75;7.75;;;;;23.08;60.97;100967.06;5048452;28;29933;-58
2023/06/21 05:41:49;;;;;;;;;8.75;8.00;;;;;23.16;60.64;100976.81;5048745;28;29629;-52
2023/06/21 05:44:15;;;;;;;;;6.50;6.50;;;;;23.19;60.91;100967.81;5048871;28;29309;-54
2023/06/21 05:46:40;;;;;;;;;6.80;5.80;;;;;23.22;60.54;100970.00;5048847;28;29972;-58
2023/06/21 05:49:06;;;;;;;;;4.50;4.50;;;;;23.21;60.81;100962.75;5048806;28;29186;-58
2023/06/21 05:51:31;;;;;;;;;7.00;6.00;;;;;23.15;60.76;100972.31;5047138;28;29652;-57
2023/06/21 05:53:57;;;;;;;;;11.00;8.75;;;;;23.15;60.64;100970.38;5049131;28;29436;-54
2023/06/21 05:56:26;;;;;;;;;8.00;6.00;;;;;23.09;60.90;100970.69;5048747;28;29725;-55
2023/06/21 05:58:52;;;;;;;;;7.20;7.20;;;;;23.09;61.43;100967.88;5049213;28;29767;-56
2023/06/21 06:01:18;;;;;;;;;8.00;8.00;;;;;23.10;61.08;100972.38;5049036;28;29503;-54
2023/06/21 06:03:43;;;;;;;;;8.00;6.75;;;;;23.11;61.22;100966.47;5049327;28;28953;-57
2023/06/21 06:06:09;;;;;;;;;7.75;6.50;;;;;23.14;60.93;100965.91;5039727;28;29553;-58
2023/06/21 06:08:34;;;;;;;;;8.25;7.25;;;;;23.12;61.12;100970.94;5048889;28;28918;-56
2023/06/21 06:11:00;;;;;;;;;9.25;8.00;;;;;23.17;61.00;100970.09;5034531;28;30104;-52
2023/06/21 06:13:26;;;;;;;;;9.75;9.25;;;;;23.21;61.19;100973.13;5052039;28;29426;-53
2023/06/21 06:15:51;;;;;;;;;6.60;6.60;;;;;23.15;61.28;100970.38;5051897;28;29075;-56
2023/06/21 06:18:17;;;;;;;;;8.25;7.25;;;;;23.26;60.81;100975.91;5052081;28;29913;-54
2023/06/21 06:20:43;;;;;;;;;8.50;8.50;;;;;23.28;60.74;100970.81;5051090;28;29928;-57
2023/06/21 06:23:12;;;;;;;;;7.50;7.50;;;;;23.26;60.57;100971.13;5051942;28;29612;-53
2023/06/21 06:25:38;;;;;;;;;8.00;7.00;;;;;23.34;60.67;100971.66;5031537;28;30254;-61
2023/06/21 06:28:04;;;;;;;;;8.60;8.60;;;;;23.33;60.31;100979.22;5044149;28;30016;-54
2023/06/21 06:30:29;;;;;;;;;8.25;8.00;;;;;23.24;60.85;100970.59;5048595;28;30373;-52
2023/06/21 06:32:55;;;;;;;;;6.75;6.75;;;;;23.35;60.33;100979.75;5049685;28;29893;-58
2023/06/21 06:35:20;;;;;;;;;5.50;5.50;;;;;23.28;60.20;100973.63;5050312;28;29430;-52
2023/06/21 06:37:46;;;;;;;;;9.25;5.75;;;;;23.35;60.34;100987.31;5049817;28;29314;-58
2023/06/21 06:40:12;;;;;;;;;7.50;7.50;;;;;23.38;59.94;100981.13;5049954;28;29725;-51
2023/06/21 06:42:37;;;;;;;;;11.25;8.25;;;;;23.45;59.50;100992.00;5048954;28;29762;-56
2023/06/21 06:45:03;;;;;;;;;9.75;8.00;;;;;23.48;59.98;100988.63;5049885;28;29247;-56
2023/06/21 06:47:29;;;;;;;;;10.75;7.00;;;;;23.51;59.39;100985.22;5050041;28;29798;-56
2023/06/21 06:49:55;;;;;;;;;8.00;8.00;;;;;23.55;59.65;100995.53;5049709;28;29890;-56
2023/06/21 06:52:21;;;;;;;;;9.60;8.80;;;;;23.50;59.24;100989.16;5050204;28;29813;-57
2023/06/21 06:54:46;;;;;;;;;8.00;8.00;;;;;23.52;59.33;100998.09;5044281;28;29711;-59
2023/06/21 06:57:12;;;;;;;;;9.00;8.00;;;;;23.42;59.51;100999.00;5050145;28;29405;-58
2023/06/21 06:59:37;;;;;;;;;9.25;7.00;;;;;23.42;58.54;101005.47;5049830;28;29433;-52
2023/06/21 07:02:03;;;;;;;;;7.50;7.50;;;;;23.52;58.24;101006.47;5049500;28;29912;-56
2023/06/21 07:04:28;;;;;;;;;6.00;6.00;;;;;23.62;58.11;101012.00;5044543;28;29897;-57
2023/06/21 07:06:54;;;;;;;;;8.25;7.25;;;;;23.64;57.57;101008.91;5039705;28;29920;-60
2023/06/21 07:09:19;;;;;;;;;7.25;7.00;;;;;23.68;57.24;101010.84;5038992;28;30159;-55
2023/06/21 07:11:45;;;;;;;;;6.50;5.75;;;;;23.68;57.07;100998.78;5042195;28;29789;-56
2023/06/21 07:14:11;;;;;;;;;9.75;9.75;;;;;23.78;56.90;101006.25;5043302;28;29465;-57
2023/06/21 07:16:40;;;;;;;;;6.00;5.00;;;;;23.82;56.95;101015.75;5048140;28;29137;-58
2023/06/21 07:19:06;;;;;;;;;9.60;8.40;;;;;23.80;56.53;101018.84;5043404;28;29833;-53
2023/06/21 07:21:31;;;;;;;;;9.00;8.75;;;;;23.73;56.89;101004.34;5048591;28;29824;-56
2023/06/21 07:23:57;;;;;;;;;9.25;8.00;;;;;23.84;56.83;101013.47;5049622;28;29521;-57
2023/06/21 07:26:22;;;;;;;;;7.25;6.75;;;;;23.93;56.49;101014.53;5035213;28;30136;-58
2023/06/21 07:28:48;;;;;;;;;8.50;8.00;;;;;23.96;56.48;101015.91;5011339;28;30533;-55
2023/06/21 07:31:13;;;;;;;;;5.75;5.75;;;;;24.02;56.13;101009.06;5039127;28;29327;-54
2023/06/21 07:33:39;;;;;;;;;10.75;9.75;;;;;24.07;56.18;101017.47;5049066;28;28721;-61
2023/06/21 07:36:05;;;;;;;;;8.25;8.25;;;;;24.14;56.13;101030.28;5050023;28;29512;-58
2023/06/21 07:38:30;;;;;;;;;9.40;8.80;;;;;24.21;55.66;101042.84;5047532;28;29268;-54
2023/06/21 07:40:56;;;;;;;;;7.75;6.00;;;;;24.21;55.12;101022.34;5050244;28;29699;-55
2023/06/21 07:43:21;;;;;;;;;7.25;6.25;;;;;24.20;55.31;101021.53;5050051;28;29397;-56
2023/06/21 07:45:47;;;;;;;;;7.25;7.25;;;;;24.31;55.16;101010.19;5050281;28;29475;-56
2023/06/21 07:48:12;;;;;;;;;8.50;8.50;;;;;24.31;55.32;101001.78;5050047;28;29886;-56
2023/06/21 07:50:38;;;;;;;;;10.00;9.00;;;;;24.28;55.16;100993.97;5031859;28;29081;-53
2023/06/21 07:53:03;;;;;;;;;8.25;7.25;;;;;24.42;55.14;101010.91;5024400;28;29694;-55
2023/06/21 07:55:29;;;;;;;;;8.00;7.00;;;;;24.41;55.15;101012.03;5027689;28;29500;-58
2023/06/21 07:57:55;;;;;;;;;9.00;7.00;;;;;24.44;54.86;101017.88;5028716;28;29860;-56
2023/06/21 08:00:20;;;;;;;;;9.25;7.50;;;;;24.48;55.11;101018.13;5028818;28;29713;-56
2023/06/21 08:02:49;;;;;;;;;9.00;7.00;;;;;24.55;54.96;101020.56;5028477;28;29942;-55
2023/06/21 08:05:14;;;;;;;;;14.00;9.60;;;;;24.60;54.80;101020.50;5028480;28;29898;-57
2023/06/21 08:07:40;;;;;;;;;10.00;8.50;;;;;24.66;54.43;101029.69;5028977;28;29994;-56
2023/06/21 08:10:06;;;;;;;;;8.00;8.00;;;;;24.67;53.94;101026.56;5028798;28;29173;-56
2023/06/21 08:12:31;;;;;;;;;8.25;7.50;;;;;24.67;54.16;101029.38;5027499;28;30118;-57
2023/06/21 08:14:57;;;;;;;;;8.50;7.50;;;;;24.71;53.98;101026.81;5029100;28;29448;-59
2023/06/21 08:17:22;;;;;;;;;7.75;7.75;;;;;24.81;53.96;101040.72;5028318;28;30242;-57
2023/06/21 08:19:48;;;;;;;;;10.25;9.25;;;;;24.85;53.72;101032.53;5027520;28;29191;-55
2023/06/21 08:22:13;;;;;;;;;7.25;7.25;;;;;24.90;53.36;101041.72;5028673;28;29531;-51
2023/06/21 08:24:39;;;;;;;;;7.75;7.50;;;;;24.84;53.21;101037.31;5028500;28;29580;-56
2023/06/21 08:27:04;;;;;;;;;9.00;9.00;;;;;24.94;52.98;101035.50;5028284;28;29883;-59
2023/06/21 08:29:30;;;;;;;;;8.25;8.00;;;;;24.80;52.83;101024.16;5000522;28;30176;-54
2023/06/21 08:31:55;;;;;;;;;14.50;12.75;;;;;24.82;53.24;101025.56;5018184;28;29865;-54
2023/06/21 08:34:21;;;;;;;;;9.50;9.50;;;;;24.95;52.74;101039.97;5025078;28;29326;-56
2023/06/21 08:36:46;;;;;;;;;11.50;10.50;;;;;24.88;52.75;101029.94;5026601;28;29834;-58
2023/06/21 08:39:12;;;;;;;;;10.00;9.00;;;;;24.93;52.92;101040.28;5026611;28;29340;-57
2023/06/21 08:41:40;;;;;;;;;5.75;3.25;;;;;25.10;53.14;101044.53;5026779;28;29953;-55
2023/06/21 08:44:06;;;;;;;;;8.40;8.40;;;;;25.22;52.16;101044.06;5008660;28;29451;-56
2023/06/21 08:46:33;;;;;;;;;9.75;7.50;;;;;25.26;52.11;101029.13;5027040;28;29877;-57
2023/06/21 08:49:00;;;;;;;;;9.60;9.20;;;;;25.44;51.44;101032.19;5043229;28;29846;-53
2023/06/21 08:51:26;;;;;;;;;11.00;8.60;;;;;25.51;51.38;101023.38;5009976;28;30010;-55
2023/06/21 08:54:06;;;;;;;;;9.75;8.25;;;;;25.64;51.14;101039.50;5009653;28;29828;-55
2023/06/21 08:56:51;;;;;;;;;7.80;7.80;;;;;25.73;50.68;101042.44;5025107;28;29909;-58
2023/06/21 08:59:27;;;;;;;;;9.60;8.80;;;;;25.68;50.64;101042.50;5011990;28;29795;-56
2023/06/21 09:02:21;;;;;;;;;9.00;9.00;;;;;25.62;50.71;101044.59;5026330;28;29622;-54
2023/06/21 09:04:47;;;;;;;;;6.20;6.20;;;;;25.67;50.42;101049.28;5027523;28;29964;-55
2023/06/21 09:07:13;;;;;;;;;15.40;11.20;;;;;25.67;50.16;101050.09;5023547;28;30526;-50
2023/06/21 09:09:39;;;;;;;;;10.80;8.80;;;;;25.67;50.16;101038.03;5025463;28;30354;-56
2023/06/21 09:12:06;;;;;;;;;8.80;7.40;;;;;25.75;49.45;101040.13;5017068;28;29536;-58
2023/06/21 09:14:32;;;;;;;;;9.80;9.00;;;;;25.88;49.45;101048.91;5009387;28;30024;-54
2023/06/21 09:16:59;;;;;;;;;7.25;7.25;;;;;25.89;49.30;101047.75;5027319;28;30195;-55
2023/06/21 09:19:25;;;;;;;;;13.20;12.40;;;;;25.90;49.22;101041.00;5025737;28;29292;-56
2023/06/21 09:21:50;;;;;;;;;8.75;8.50;;;;;25.98;48.59;101051.53;5027260;28;29311;-56
2023/06/21 09:24:15;;;;;;;;;9.00;7.00;;;;;25.95;48.39;101046.53;5027891;28;30021;-56
2023/06/21 09:26:41;;;;;;;;;10.75;8.00;;;;;25.87;48.58;101036.81;5025765;28;29752;-59
2023/06/21 09:29:06;;;;;;;;;7.00;7.00;;;;;26.07;48.70;101048.84;5028719;28;29670;-59
2023/06/21 09:31:32;;;;;;;;;8.25;7.00;;;;;26.21;48.37;101048.84;5029115;28;29375;-59
2023/06/21 09:33:58;;;;;;;;;6.00;4.75;;;;;26.27;48.24;101044.84;5029112;28;29361;-58
2023/06/21 09:36:24;;;;;;;;;9.00;9.00;;;;;26.38;47.57;101039.81;5028841;28;30575;-57
2023/06/21 09:38:49;;;;;;;;;11.00;9.25;;;;;26.43;47.88;101050.97;5027139;28;29753;-61
2023/06/21 09:41:15;;;;;;;;;10.25;9.50;;;;;26.52;47.39;101056.72;5028604;28;29771;-59
2023/06/21 09:43:44;;;;;;;;;8.00;8.00;;;;;26.62;47.68;101044.41;5010205;28;29891;-55
2023/06/21 09:46:13;;;;;;;;;13.80;12.00;;;;;26.70;47.15;101040.84;5028450;28;29903;-58
2023/06/21 09:48:39;;;;;;;;;8.20;8.20;;;;;26.79;46.78;101049.38;5027454;28;29497;-58
2023/06/21 09:51:12;;;;;;;;;12.00;10.75;;;;;26.74;46.59;101044.69;5028060;28;29678;-59
2023/06/21 09:53:41;;;;;;;;;8.40;7.00;;;;;26.77;46.74;101046.88;5028681;28;29880;-58
2023/06/21 09:56:07;;;;;;;;;4.80;3.80;;;;;26.79;46.13;101046.56;5028601;28;29084;-60
2023/06/21 09:58:34;;;;;;;;;7.00;7.00;;;;;26.77;46.87;101046.03;5025623;28;29118;-60
2023/06/21 10:00:59;;;;;;;;;11.80;9.20;;;;;26.79;46.57;101061.47;5024358;28;29590;-60
2023/06/21 10:03:25;;;;;;;;;5.50;5.50;;;;;26.72;46.28;101044.16;5027514;28;29358;-60
2023/06/21 10:05:54;;;;;;;;;6.50;6.00;;;;;26.63;46.45;101037.63;5027377;28;30326;-61
2023/06/21 10:08:23;;;;;;;;;10.40;7.00;;;;;26.65;46.23;101052.22;5027279;28;29733;-60
2023/06/21 10:10:49;;;;;;;;;7.80;6.80;;;;;26.71;46.46;101053.78;5027480;28;29931;-61
2023/06/21 10:13:15;;;;;;;;;6.75;6.75;;;;;26.64;45.89;101042.09;5027246;28;29985;-60
2023/06/21 10:15:45;;;;;;;;;7.00;7.00;;;;;26.78;46.09;101042.91;5027159;28;29119;-61
2023/06/21 10:18:12;;;;;;;;;7.40;7.40;;;;;26.88;45.84;101032.56;5008949;28;31230;-58
2023/06/21 10:20:38;;;;;;;;;7.00;6.80;;;;;26.97;45.89;101039.16;5026081;28;29301;-61
2023/06/21 10:23:04;;;;;;;;;6.40;6.40;;;;;26.92;45.68;101039.25;5025475;28;29562;-60
2023/06/21 10:25:29;;;;;;;;;5.00;5.00;;;;;26.97;46.23;101038.31;5028638;28;29616;-61
2023/06/21 10:27:55;;;;;;;;;9.25;8.00;;;;;26.95;45.99;101037.81;5029174;28;30377;-60
2023/06/21 10:30:21;;;;;;;;;5.00;5.00;;;;;26.84;45.22;101023.91;5029173;28;29844;-61
2023/06/21 10:32:47;;;;;;;;;8.00;8.00;;;;;26.83;45.29;101043.97;5047218;28;29570;-61
2023/06/21 10:35:15;;;;;;;;;7.40;7.00;;;;;26.82;45.93;101043.09;5045877;28;29986;-60
2023/06/21 10:37:48;;;;;;;;;5.80;5.80;;;;;26.92;45.60;101042.94;5029583;28;29692;-62
2023/06/21 10:40:14;;;;;;;;;6.80;5.20;;;;;26.99;45.53;101044.47;5048000;28;29794;-62
2023/06/21 10:42:40;;;;;;;;;9.25;7.00;;;;;27.09;45.55;101047.03;5048531;28;29928;-61
2023/06/21 10:45:06;;;;;;;;;10.75;9.75;;;;;27.16;45.40;101024.91;5046739;28;29221;-61
2023/06/21 10:47:31;;;;;;;;;8.80;8.00;;;;;27.29;44.86;101039.25;5046890;28;28793;-61
2023/06/21 10:50:00;;;;;;;;;5.00;4.00;;;;;27.37;44.54;101032.84;5040095;28;29063;-62
2023/06/21 10:52:26;;;;;;;;;6.00;6.00;;;;;27.40;44.81;101035.03;5026690;28;29749;-61
2023/06/21 10:54:54;;;;;;;;;7.60;7.60;;;;;27.45;43.65;101026.47;5028653;28;30511;-62
2023/06/21 10:57:19;;;;;;;;;10.20;9.20;;;;;27.59;43.86;101042.50;5030232;28;29774;-62
2023/06/21 10:59:45;;;;;;;;;10.25;8.75;;;;;27.68;43.35;101036.88;5030266;28;29230;-56
2023/06/21 11:02:11;;;;;;;;;9.75;7.50;;;;;27.57;43.78;101034.34;5031559;28;29993;-58
2023/06/21 11:05:16;;;;;;;;;7.75;6.75;;;;;27.53;44.34;101046.56;5029361;28;30034;-59
2023/06/21 11:08:14;;;;;;;;;8.40;7.00;;;;;27.47;44.54;101046.69;5030827;28;29538;-60
2023/06/21 11:10:46;;;;;;;;;6.20;5.40;;;;;27.40;43.95;101046.31;5029551;28;30302;-57
2023/06/21 11:13:11;;;;;;;;;6.40;6.40;;;;;27.37;44.21;101040.47;5031347;28;29687;-59
2023/06/21 11:15:39;;;;;;;;;7.00;6.00;;;;;27.28;44.44;101041.25;5029623;28;30956;-61
2023/06/21 11:18:08;;;;;;;;;6.60;6.00;;;;;27.29;43.74;101036.44;5030968;28;29373;-61
2023/06/21 11:20:52;;;;;;;;;6.20;6.20;;;;;27.47;43.06;101037.38;5030656;28;29177;-61
2023/06/21 11:23:19;;;;;;;;;5.00;5.00;;;;;27.60;42.65;101027.25;5029829;28;29455;-61